sensor_id;sensor_type;location;lat;lon;timestamp;pressure;altitude;pressure_sealevel;temperature;humidity
16834;BME280;8533;48.426;10.868;2024-03-02T00:02:24;94870.31;;;4.89;100.00
16834;BME280;8533;48.426;10.868;2024-03-02T00:04:50;94964.38;;;5.50;100.00
16834;BME280;8533;48.426;10.868;2024-03-02T00:07:16;94961.50;;;5.52;100.00
16834;BME280;8533;48.426;10.868;2024-03-02T00:09:41;94973.28;;;5.59;100.00
16834;BME280;8533;48.426;10.868;2024-03-02T00:12:07;94965.94;;;5.51;100.00
16834;BME280;8533;48.426;10.868;2024-03-02T00:14:32;94889.59;;;4.98;100.00
16834;BME280;8533;48.426;10.868;2024-03-02T00:16:58;94974.97;;;5.27;100.00
16834;BME280;8533;48.426;10.868;2024-03-02T00:19:24;94974.25;;;5.53;100.00
16834;BME280;8533;48.426;10.868;2024-03-02T00:21:50;94945.72;;;5.31;100.00
16834;BME280;8533;48.426;10.868;2024-03-02T00:24:21;94849.41;;;4.74;100.00
16834;BME280;8533;48.426;10.868;2024-03-02T00:26:47;94973.16;;;5.49;100.00
16834;BME280;8533;48.426;10.868;2024-03-02T00:29:15;94921.66;;;5.14;100.00
16834;BME280;8533;48.426;10.868;2024-03-02T00:31:44;94929.56;;;5.24;100.00
16834;BME280;8533;48.426;10.868;2024-03-02T00:34:12;94958.75;;;5.36;100.00
16834;BME280;8533;48.426;10.868;2024-03-02T00:36:38;94948.84;;;5.12;100.00
16834;BME280;8533;48.426;10.868;2024-03-02T00:39:04;94981.84;;;5.38;100.00
16834;BME280;8533;48.426;10.868;2024-03-02T00:41:33;94980.88;;;5.44;100.00
16834;BME280;8533;48.426;10.868;2024-03-02T00:44:00;94955.97;;;5.21;100.00
16834;BME280;8533;48.426;10.868;2024-03-02T00:46:29;94976.09;;;5.36;100.00
16834;BME280;8533;48.426;10.868;2024-03-02T00:48:57;94749.34;;;3.86;100.00
16834;BME280;8533;48.426;10.868;2024-03-02T00:51:25;94875.72;;;4.66;100.00
16834;BME280;8533;48.426;10.868;2024-03-02T00:53:53;94977.63;;;5.32;100.00
16834;BME280;8533;48.426;10.868;2024-03-02T00:56:21;94787.50;;;4.12;100.00
16834;BME280;8533;48.426;10.868;2024-03-02T00:58:47;94863.00;;;4.65;100.00
16834;BME280;8533;48.426;10.868;2024-03-02T01:01:13;94976.09;;;5.36;100.00
16834;BME280;8533;48.426;10.868;2024-03-02T01:03:38;94958.88;;;5.25;100.00
16834;BME280;8533;48.426;10.868;2024-03-02T01:06:04;94926.97;;;5.03;100.00
16834;BME280;8533;48.426;10.868;2024-03-02T01:08:30;94987.25;;;5.36;100.00
16834;BME280;8533;48.426;10.868;2024-03-02T01:10:55;94950.66;;;5.11;100.00
16834;BME280;8533;48.426;10.868;2024-03-02T01:13:22;94883.53;;;4.71;100.00
16834;BME280;8533;48.426;10.868;2024-03-02T01:15:48;94977.84;;;5.30;100.00
16834;BME280;8533;48.426;10.868;2024-03-02T01:18:13;94963.19;;;5.19;100.00
16834;BME280;8533;48.426;10.868;2024-03-02T01:20:38;94948.59;;;5.13;100.00
16834;BME280;8533;48.426;10.868;2024-03-02T01:23:04;94898.66;;;4.79;100.00
16834;BME280;8533;48.426;10.868;2024-03-02T01:25:29;94954.56;;;5.14;100.00
16834;BME280;8533;48.426;10.868;2024-03-02T01:27:54;94746.72;;;3.81;100.00
16834;BME280;8533;48.426;10.868;2024-03-02T01:30:19;94990.03;;;5.30;100.00
16834;BME280;8533;48.426;10.868;2024-03-02T01:32:45;94773.88;;;4.00;100.00
16834;BME280;8533;48.426;10.868;2024-03-02T01:35:10;94950.34;;;5.08;100.00
16834;BME280;8533;48.426;10.868;2024-03-02T01:37:35;94928.09;;;4.90;100.00
16834;BME280;8533;48.426;10.868;2024-03-02T01:40:01;94918.69;;;4.84;100.00
16834;BME280;8533;48.426;10.868;2024-03-02T01:42:27;94908.81;;;4.81;100.00
16834;BME280;8533;48.426;10.868;2024-03-02T01:44:53;94870.41;;;4.56;100.00
16834;BME280;8533;48.426;10.868;2024-03-02T01:47:18;94979.84;;;5.23;100.00
16834;BME280;8533;48.426;10.868;2024-03-02T01:49:43;94952.72;;;5.09;100.00
16834;BME280;8533;48.426;10.868;2024-03-02T01:52:09;94942.53;;;5.03;100.00
16834;BME280;8533;48.426;10.868;2024-03-02T01:54:34;94955.06;;;5.11;100.00
16834;BME280;8533;48.426;10.868;2024-03-02T01:56:59;94980.06;;;5.22;100.00
16834;BME280;8533;48.426;10.868;2024-03-02T01:59:25;94973.09;;;5.22;100.00
16834;BME280;8533;48.426;10.868;2024-03-02T02:01:50;94946.75;;;5.09;100.00
16834;BME280;8533;48.426;10.868;2024-03-02T02:04:16;94971.84;;;5.25;100.00
16834;BME280;8533;48.426;10.868;2024-03-02T02:06:43;94958.09;;;5.24;100.00
16834;BME280;8533;48.426;10.868;2024-03-02T02:09:09;94936.84;;;5.06;100.00
16834;BME280;8533;48.426;10.868;2024-03-02T02:11:34;94939.44;;;5.06;100.00
16834;BME280;8533;48.426;10.868;2024-03-02T02:13:59;94919.63;;;4.94;100.00
16834;BME280;8533;48.426;10.868;2024-03-02T02:16:25;94895.63;;;4.82;100.00
16834;BME280;8533;48.426;10.868;2024-03-02T02:18:50;94940.66;;;5.20;100.00
16834;BME280;8533;48.426;10.868;2024-03-02T02:21:15;94880.81;;;4.78;100.00
16834;BME280;8533;48.426;10.868;2024-03-02T02:23:41;94933.78;;;5.09;100.00
16834;BME280;8533;48.426;10.868;2024-03-02T02:26:11;94933.56;;;5.10;100.00
16834;BME280;8533;48.426;10.868;2024-03-02T02:28:36;94729.06;;;3.78;100.00
16834;BME280;8533;48.426;10.868;2024-03-02T02:31:02;94953.13;;;5.23;100.00
16834;BME280;8533;48.426;10.868;2024-03-02T02:33:28;94719.13;;;3.70;100.00
16834;BME280;8533;48.426;10.868;2024-03-02T02:35:53;94835.84;;;4.45;100.00
16834;BME280;8533;48.426;10.868;2024-03-02T02:38:18;94920.22;;;5.02;100.00
16834;BME280;8533;48.426;10.868;2024-03-02T02:40:45;94936.50;;;5.19;100.00
16834;BME280;8533;48.426;10.868;2024-03-02T02:43:10;94944.53;;;5.17;100.00
16834;BME280;8533;48.426;10.868;2024-03-02T02:45:35;94924.22;;;5.09;100.00
16834;BME280;8533;48.426;10.868;2024-03-02T02:48:01;94944.28;;;5.19;100.00
16834;BME280;8533;48.426;10.868;2024-03-02T02:50:27;94927.09;;;5.13;100.00
16834;BME280;8533;48.426;10.868;2024-03-02T02:52:53;94926.31;;;5.12;100.00
16834;BME280;8533;48.426;10.868;2024-03-02T02:55:18;94923.88;;;5.06;100.00
16834;BME280;8533;48.426;10.868;2024-03-02T02:57:44;94906.59;;;4.89;100.00
16834;BME280;8533;48.426;10.868;2024-03-02T03:00:12;94967.63;;;5.19;100.00
16834;BME280;8533;48.426;10.868;2024-03-02T03:02:41;94960.84;;;5.18;100.00
16834;BME280;8533;48.426;10.868;2024-03-02T03:05:09;94876.97;;;4.64;100.00
16834;BME280;8533;48.426;10.868;2024-03-02T03:07:34;94951.69;;;5.10;100.00
16834;BME280;8533;48.426;10.868;2024-03-02T03:10:00;94950.91;;;5.10;100.00
16834;BME280;8533;48.426;10.868;2024-03-02T03:12:25;94921.06;;;4.85;100.00
16834;BME280;8533;48.426;10.868;2024-03-02T03:14:50;94967.53;;;5.14;100.00
16834;BME280;8533;48.426;10.868;2024-03-02T03:17:16;94970.34;;;5.12;100.00
16834;BME280;8533;48.426;10.868;2024-03-02T03:19:42;94975.00;;;5.10;100.00
16834;BME280;8533;48.426;10.868;2024-03-02T03:22:07;94969.03;;;5.10;100.00
16834;BME280;8533;48.426;10.868;2024-03-02T03:24:33;94960.41;;;5.04;100.00
16834;BME280;8533;48.426;10.868;2024-03-02T03:26:58;94856.63;;;4.34;100.00
16834;BME280;8533;48.426;10.868;2024-03-02T03:29:23;94975.47;;;5.07;100.00
16834;BME280;8533;48.426;10.868;2024-03-02T03:31:49;94981.69;;;5.06;100.00
16834;BME280;8533;48.426;10.868;2024-03-02T03:34:14;94952.38;;;4.84;100.00
16834;BME280;8533;48.426;10.868;2024-03-02T03:36:41;94962.56;;;4.90;100.00
16834;BME280;8533;48.426;10.868;2024-03-02T03:39:06;94995.09;;;5.03;100.00
16834;BME280;8533;48.426;10.868;2024-03-02T03:41:31;94977.38;;;4.95;100.00
16834;BME280;8533;48.426;10.868;2024-03-02T03:43:57;94915.44;;;4.55;100.00
16834;BME280;8533;48.426;10.868;2024-03-02T03:46:22;94973.94;;;4.89;100.00
16834;BME280;8533;48.426;10.868;2024-03-02T03:48:47;94988.22;;;4.92;100.00
16834;BME280;8533;48.426;10.868;2024-03-02T03:51:13;94999.22;;;4.99;100.00
16834;BME280;8533;48.426;10.868;2024-03-02T03:53:38;94963.59;;;4.73;100.00
16834;BME280;8533;48.426;10.868;2024-03-02T03:56:03;94994.09;;;4.87;100.00
16834;BME280;8533;48.426;10.868;2024-03-02T03:58:29;94988.06;;;4.82;100.00
16834;BME280;8533;48.426;10.868;2024-03-02T04:00:54;94889.66;;;4.10;100.00
16834;BME280;8533;48.426;10.868;2024-03-02T04:03:19;94981.16;;;4.71;100.00
16834;BME280;8533;48.426;10.868;2024-03-02T04:05:45;94996.56;;;4.77;100.00
16834;BME280;8533;48.426;10.868;2024-03-02T04:08:10;94898.81;;;4.17;100.00
16834;BME280;8533;48.426;10.868;2024-03-02T04:10:36;94945.34;;;4.46;100.00
16834;BME280;8533;48.426;10.868;2024-03-02T04:13:01;95001.59;;;4.84;100.00
16834;BME280;8533;48.426;10.868;2024-03-02T04:15:27;94979.75;;;4.63;100.00
16834;BME280;8533;48.426;10.868;2024-03-02T04:17:52;94998.91;;;4.79;100.00
16834;BME280;8533;48.426;10.868;2024-03-02T04:20:17;94973.44;;;4.54;100.00
16834;BME280;8533;48.426;10.868;2024-03-02T04:22:42;95014.59;;;4.72;100.00
16834;BME280;8533;48.426;10.868;2024-03-02T04:25:08;95001.44;;;4.74;100.00
16834;BME280;8533;48.426;10.868;2024-03-02T04:27:34;94990.44;;;4.67;100.00
16834;BME280;8533;48.426;10.868;2024-03-02T04:30:00;94914.34;;;4.17;100.00
16834;BME280;8533;48.426;10.868;2024-03-02T04:32:27;94983.13;;;4.64;100.00
16834;BME280;8533;48.426;10.868;2024-03-02T04:34:52;95007.47;;;4.79;100.00
16834;BME280;8533;48.426;10.868;2024-03-02T04:37:18;95001.44;;;4.74;100.00
16834;BME280;8533;48.426;10.868;2024-03-02T04:39:43;94942.59;;;4.36;100.00
16834;BME280;8533;48.426;10.868;2024-03-02T04:42:09;94807.41;;;3.45;100.00
16834;BME280;8533;48.426;10.868;2024-03-02T04:44:34;95000.41;;;4.75;100.00
16834;BME280;8533;48.426;10.868;2024-03-02T04:46:59;94989.19;;;4.69;100.00
16834;BME280;8533;48.426;10.868;2024-03-02T04:49:25;94990.44;;;4.67;100.00
16834;BME280;8533;48.426;10.868;2024-03-02T04:51:50;95005.34;;;4.76;100.00
16834;BME280;8533;48.426;10.868;2024-03-02T04:54:16;95011.16;;;4.83;100.00
16834;BME280;8533;48.426;10.868;2024-03-02T04:56:41;94989.97;;;4.70;100.00
16834;BME280;8533;48.426;10.868;2024-03-02T04:59:10;95010.53;;;4.76;100.00
16834;BME280;8533;48.426;10.868;2024-03-02T05:01:35;94938.59;;;4.28;100.00
16834;BME280;8533;48.426;10.868;2024-03-02T05:04:00;95010.78;;;4.75;100.00
16834;BME280;8533;48.426;10.868;2024-03-02T05:06:26;94995.06;;;4.65;100.00
16834;BME280;8533;48.426;10.868;2024-03-02T05:08:51;95005.19;;;4.66;100.00
16834;BME280;8533;48.426;10.868;2024-03-02T05:11:16;95023.72;;;4.75;100.00
16834;BME280;8533;48.426;10.868;2024-03-02T05:14:00;94987.41;;;4.53;100.00
16834;BME280;8533;48.426;10.868;2024-03-02T05:16:25;95023.72;;;4.75;100.00
16834;BME280;8533;48.426;10.868;2024-03-02T05:18:50;94969.03;;;4.38;100.00
16834;BME280;8533;48.426;10.868;2024-03-02T05:21:15;95030.63;;;4.69;100.00
16834;BME280;8533;48.426;10.868;2024-03-02T05:23:41;94992.19;;;4.44;100.00
16834;BME280;8533;48.426;10.868;2024-03-02T05:26:06;94974.81;;;4.28;100.00
16834;BME280;8533;48.426;10.868;2024-03-02T05:28:31;95024.81;;;4.62;100.00
16834;BME280;8533;48.426;10.868;2024-03-02T05:30:57;95019.78;;;4.55;100.00
16834;BME280;8533;48.426;10.868;2024-03-02T05:33:22;94804.75;;;3.12;100.00
16834;BME280;8533;48.426;10.868;2024-03-02T05:35:48;95032.19;;;4.53;100.00
16834;BME280;8533;48.426;10.868;2024-03-02T05:38:16;95026.69;;;4.50;100.00
16834;BME280;8533;48.426;10.868;2024-03-02T05:40:41;95005.97;;;4.33;100.00
16834;BME280;8533;48.426;10.868;2024-03-02T05:43:06;94963.19;;;3.97;100.00
16834;BME280;8533;48.426;10.868;2024-03-02T05:45:31;95024.47;;;4.42;100.00
16834;BME280;8533;48.426;10.868;2024-03-02T05:47:57;95006.34;;;4.25;100.00
16834;BME280;8533;48.426;10.868;2024-03-02T05:50:22;94977.84;;;4.08;100.00
16834;BME280;8533;48.426;10.868;2024-03-02T05:52:47;94995.34;;;4.18;100.00
16834;BME280;8533;48.426;10.868;2024-03-02T05:55:13;94987.81;;;4.16;100.00
16834;BME280;8533;48.426;10.868;2024-03-02T05:57:38;95002.59;;;4.33;100.00
16834;BME280;8533;48.426;10.868;2024-03-02T06:00:06;94991.38;;;4.27;100.00
16834;BME280;8533;48.426;10.868;2024-03-02T06:02:33;94988.22;;;4.25;100.00
16834;BME280;8533;48.426;10.868;2024-03-02T06:05:00;95001.13;;;4.37;100.00
16834;BME280;8533;48.426;10.868;2024-03-02T06:07:25;95021.34;;;4.40;100.00
16834;BME280;8533;48.426;10.868;2024-03-02T06:09:50;95016.16;;;4.40;100.00
16834;BME280;8533;48.426;10.868;2024-03-02T06:12:17;95021.34;;;4.40;100.00
16834;BME280;8533;48.426;10.868;2024-03-02T06:14:43;95020.25;;;4.36;100.00
16834;BME280;8533;48.426;10.868;2024-03-02T06:17:08;95017.66;;;4.36;100.00
16834;BME280;8533;48.426;10.868;2024-03-02T06:19:33;94985.00;;;4.18;100.00
16834;BME280;8533;48.426;10.868;2024-03-02T06:21:59;95003.28;;;4.28;100.00
16834;BME280;8533;48.426;10.868;2024-03-02T06:24:24;95004.53;;;4.26;100.00
16834;BME280;8533;48.426;10.868;2024-03-02T06:26:51;95038.44;;;4.41;100.00
16834;BME280;8533;48.426;10.868;2024-03-02T06:29:17;95007.53;;;4.34;100.00
16834;BME280;8533;48.426;10.868;2024-03-02T06:31:42;95018.91;;;4.50;100.00
16834;BME280;8533;48.426;10.868;2024-03-02T06:34:07;95000.09;;;4.38;100.00
16834;BME280;8533;48.426;10.868;2024-03-02T06:36:33;95024.16;;;4.55;100.00
16834;BME280;8533;48.426;10.868;2024-03-02T06:38:59;94986.59;;;4.36;100.00
16834;BME280;8533;48.426;10.868;2024-03-02T06:41:25;95013.59;;;4.56;100.00
16834;BME280;8533;48.426;10.868;2024-03-02T06:43:51;95019.50;;;4.69;100.00
16834;BME280;8533;48.426;10.868;2024-03-02T06:46:24;94979.06;;;4.51;100.00
16834;BME280;8533;48.426;10.868;2024-03-02T06:48:49;94998.06;;;4.73;100.00
16834;BME280;8533;48.426;10.868;2024-03-02T06:51:15;95016.41;;;4.88;100.00
16834;BME280;8533;48.426;10.868;2024-03-02T06:53:41;95029.06;;;5.02;100.00
16834;BME280;8533;48.426;10.868;2024-03-02T06:56:07;95012.09;;;5.11;100.00
16834;BME280;8533;48.426;10.868;2024-03-02T06:58:32;94996.38;;;5.01;100.00
16834;BME280;8533;48.426;10.868;2024-03-02T07:00:58;95002.31;;;5.18;100.00
16834;BME280;8533;48.426;10.868;2024-03-02T07:03:23;94909.84;;;4.63;100.00
16834;BME280;8533;48.426;10.868;2024-03-02T07:05:48;94983.31;;;5.12;100.00
16834;BME280;8533;48.426;10.868;2024-03-02T07:08:13;94995.75;;;5.32;100.00
16834;BME280;8533;48.426;10.868;2024-03-02T07:10:39;95019.91;;;5.54;100.00
16834;BME280;8533;48.426;10.868;2024-03-02T07:13:04;94976.59;;;5.33;100.00
16834;BME280;8533;48.426;10.868;2024-03-02T07:15:30;95006.94;;;5.54;100.00
16834;BME280;8533;48.426;10.868;2024-03-02T07:18:10;95025.50;;;5.68;100.00
16834;BME280;8533;48.426;10.868;2024-03-02T07:20:35;95019.59;;;5.72;100.00
16834;BME280;8533;48.426;10.868;2024-03-02T07:23:00;95016.03;;;5.79;100.00
16834;BME280;8533;48.426;10.868;2024-03-02T07:25:26;95029.31;;;5.82;100.00
16834;BME280;8533;48.426;10.868;2024-03-02T07:27:51;95022.06;;;5.84;100.00
16834;BME280;8533;48.426;10.868;2024-03-02T07:30:16;95006.16;;;5.75;100.00
16834;BME280;8533;48.426;10.868;2024-03-02T07:32:42;95031.28;;;5.92;100.00
16834;BME280;8533;48.426;10.868;2024-03-02T07:35:13;95018.78;;;5.89;100.00
16834;BME280;8533;48.426;10.868;2024-03-02T07:37:39;95001.03;;;5.81;100.00
16834;BME280;8533;48.426;10.868;2024-03-02T07:40:09;95022.53;;;5.98;100.00
16834;BME280;8533;48.426;10.868;2024-03-02T07:42:38;94993.78;;;5.83;100.00
16834;BME280;8533;48.426;10.868;2024-03-02T07:45:04;95023.31;;;5.98;100.00
16834;BME280;8533;48.426;10.868;2024-03-02T07:47:30;95014.41;;;5.94;100.00
16834;BME280;8533;48.426;10.868;2024-03-02T07:49:55;95005.66;;;5.79;100.00
16834;BME280;8533;48.426;10.868;2024-03-02T07:52:20;95060.94;;;6.23;100.00
16834;BME280;8533;48.426;10.868;2024-03-02T07:54:46;95027.28;;;6.06;100.00
16834;BME280;8533;48.426;10.868;2024-03-02T07:57:11;95006.16;;;5.97;100.00
16834;BME280;8533;48.426;10.868;2024-03-02T07:59:37;95028.47;;;6.20;100.00
16834;BME280;8533;48.426;10.868;2024-03-02T08:02:02;95078.19;;;6.61;100.00
16834;BME280;8533;48.426;10.868;2024-03-02T08:04:28;95062.28;;;6.57;100.00
16834;BME280;8533;48.426;10.868;2024-03-02T08:06:53;95044.56;;;6.49;100.00
16834;BME280;8533;48.426;10.868;2024-03-02T08:09:19;95110.06;;;6.78;100.00
16834;BME280;8533;48.426;10.868;2024-03-02T08:11:45;95105.66;;;6.78;100.00
16834;BME280;8533;48.426;10.868;2024-03-02T08:14:10;95104.41;;;6.86;100.00
16834;BME280;8533;48.426;10.868;2024-03-02T08:16:35;95088.34;;;6.89;100.00
16834;BME280;8533;48.426;10.868;2024-03-02T08:19:01;95057.97;;;6.68;100.00
16834;BME280;8533;48.426;10.868;2024-03-02T08:21:26;95094.13;;;7.01;100.00
16834;BME280;8533;48.426;10.868;2024-03-02T08:23:55;94930.16;;;6.02;100.00
16834;BME280;8533;48.426;10.868;2024-03-02T08:26:20;94905.94;;;5.91;100.00
16834;BME280;8533;48.426;10.868;2024-03-02T08:28:46;95067.84;;;6.98;100.00
16834;BME280;8533;48.426;10.868;2024-03-02T08:31:11;95089.38;;;7.25;100.00
16834;BME280;8533;48.426;10.868;2024-03-02T08:33:37;95051.53;;;7.07;100.00
16834;BME280;8533;48.426;10.868;2024-03-02T08:36:02;94833.06;;;5.71;100.00
16834;BME280;8533;48.426;10.868;2024-03-02T08:38:28;95132.59;;;7.68;100.00
16834;BME280;8533;48.426;10.868;2024-03-02T08:40:54;94933.63;;;6.44;100.00
16834;BME280;8533;48.426;10.868;2024-03-02T08:43:19;95127.97;;;7.80;100.00
16834;BME280;8533;48.426;10.868;2024-03-02T08:45:45;95085.69;;;7.63;100.00
16834;BME280;8533;48.426;10.868;2024-03-02T08:48:10;95099.56;;;7.79;100.00
16834;BME280;8533;48.426;10.868;2024-03-02T08:50:36;95110.94;;;8.10;100.00
16834;BME280;8533;48.426;10.868;2024-03-02T08:53:03;95066.34;;;7.91;100.00
16834;BME280;8533;48.426;10.868;2024-03-02T08:55:28;95129.03;;;8.36;100.00
16834;BME280;8533;48.426;10.868;2024-03-02T08:57:54;95123.31;;;8.34;100.00
16834;BME280;8533;48.426;10.868;2024-03-02T09:00:20;95122.03;;;8.52;100.00
16834;BME280;8533;48.426;10.868;2024-03-02T09:02:46;95076.16;;;8.41;100.00
16834;BME280;8533;48.426;10.868;2024-03-02T09:05:11;95098.63;;;8.62;100.00
16834;BME280;8533;48.426;10.868;2024-03-02T09:07:37;95116.13;;;8.82;100.00
16834;BME280;8533;48.426;10.868;2024-03-02T09:10:04;95133.09;;;9.00;100.00
16834;BME280;8533;48.426;10.868;2024-03-02T09:12:30;95130.50;;;9.20;100.00
16834;BME280;8533;48.426;10.868;2024-03-02T09:14:55;95137.81;;;9.38;100.00
16834;BME280;8533;48.426;10.868;2024-03-02T09:17:20;95120.34;;;9.24;100.00
16834;BME280;8533;48.426;10.868;2024-03-02T09:19:46;95126.06;;;9.46;100.00
16834;BME280;8533;48.426;10.868;2024-03-02T09:22:12;95146.38;;;9.74;100.00
16834;BME280;8533;48.426;10.868;2024-03-02T09:24:38;95069.44;;;9.46;100.00
16834;BME280;8533;48.426;10.868;2024-03-02T09:27:03;95108.81;;;9.70;100.00
16834;BME280;8533;48.426;10.868;2024-03-02T09:29:29;95085.53;;;9.79;100.00
16834;BME280;8533;48.426;10.868;2024-03-02T09:31:54;95129.13;;;9.88;100.00
16834;BME280;8533;48.426;10.868;2024-03-02T09:34:20;95111.06;;;10.02;100.00
16834;BME280;8533;48.426;10.868;2024-03-02T09:36:46;95119.16;;;10.01;100.00
16834;BME280;8533;48.426;10.868;2024-03-02T09:39:11;95126.44;;;10.24;100.00
16834;BME280;8533;48.426;10.868;2024-03-02T09:41:37;95124.03;;;10.38;100.00
16834;BME280;8533;48.426;10.868;2024-03-02T09:44:03;95120.91;;;10.36;100.00
16834;BME280;8533;48.426;10.868;2024-03-02T09:46:29;95092.75;;;10.17;100.00
16834;BME280;8533;48.426;10.868;2024-03-02T09:48:55;95056.25;;;9.97;100.00
16834;BME280;8533;48.426;10.868;2024-03-02T09:51:20;95121.53;;;10.66;100.00
16834;BME280;8533;48.426;10.868;2024-03-02T09:53:47;95064.69;;;10.38;100.00
16834;BME280;8533;48.426;10.868;2024-03-02T09:56:12;95085.53;;;10.48;100.00
16834;BME280;8533;48.426;10.868;2024-03-02T09:58:38;95125.38;;;10.25;100.00
16834;BME280;8533;48.426;10.868;2024-03-02T10:01:06;95119.38;;;10.29;100.00
16834;BME280;8533;48.426;10.868;2024-03-02T10:03:33;95085.69;;;10.08;100.00
16834;BME280;8533;48.426;10.868;2024-03-02T10:06:18;95093.19;;;10.35;100.00
16834;BME280;8533;48.426;10.868;2024-03-02T10:08:44;95097.97;;;10.07;100.00
16834;BME280;8533;48.426;10.868;2024-03-02T10:11:09;95119.66;;;10.18;100.00
16834;BME280;8533;48.426;10.868;2024-03-02T10:13:35;95122.75;;;10.35;100.00
16834;BME280;8533;48.426;10.868;2024-03-02T10:16:11;94647.56;;;7.28;100.00
16834;BME280;8533;48.426;10.868;2024-03-02T10:18:37;95089.91;;;10.04;100.00
16834;BME280;8533;48.426;10.868;2024-03-02T10:21:14;95078.09;;;10.16;100.00
16834;BME280;8533;48.426;10.868;2024-03-02T10:23:40;94900.31;;;9.43;100.00
16834;BME280;8533;48.426;10.868;2024-03-02T10:26:18;95120.31;;;10.49;100.00
16834;BME280;8533;48.426;10.868;2024-03-02T10:28:46;95102.56;;;10.41;100.00
16834;BME280;8533;48.426;10.868;2024-03-02T10:31:13;95112.72;;;10.52;100.00
16834;BME280;8533;48.426;10.868;2024-03-02T10:33:38;95100.22;;;10.44;100.00
16834;BME280;8533;48.426;10.868;2024-03-02T10:36:04;95108.94;;;10.09;100.00
16834;BME280;8533;48.426;10.868;2024-03-02T10:38:30;95077.41;;;9.90;100.00
16834;BME280;8533;48.426;10.868;2024-03-02T10:40:57;95064.41;;;9.70;100.00
16834;BME280;8533;48.426;10.868;2024-03-02T10:43:24;95088.56;;;10.21;100.00
16834;BME280;8533;48.426;10.868;2024-03-02T10:45:52;95044.22;;;9.91;100.00
16834;BME280;8533;48.426;10.868;2024-03-02T10:48:18;95036.22;;;10.31;100.00
16834;BME280;8533;48.426;10.868;2024-03-02T10:50:43;95089.16;;;10.96;100.00
16834;BME280;8533;48.426;10.868;2024-03-02T10:53:08;95078.78;;;10.86;100.00
16834;BME280;8533;48.426;10.868;2024-03-02T10:55:34;95026.03;;;10.74;100.00
16834;BME280;8533;48.426;10.868;2024-03-02T10:58:00;95069.72;;;11.07;100.00
16834;BME280;8533;48.426;10.868;2024-03-02T11:00:33;94862.06;;;9.68;100.00
16834;BME280;8533;48.426;10.868;2024-03-02T11:03:05;95063.38;;;10.80;100.00
16834;BME280;8533;48.426;10.868;2024-03-02T11:05:38;95030.03;;;10.17;100.00
16834;BME280;8533;48.426;10.868;2024-03-02T11:08:09;95012.50;;;10.23;100.00
16834;BME280;8533;48.426;10.868;2024-03-02T11:10:46;94982.56;;;9.95;100.00
16834;BME280;8533;48.426;10.868;2024-03-02T11:13:13;94964.00;;;10.02;100.00
16834;BME280;8533;48.426;10.868;2024-03-02T11:15:43;95034.50;;;10.61;100.00
16834;BME280;8533;48.426;10.868;2024-03-02T11:18:09;95049.19;;;10.91;100.00
16834;BME280;8533;48.426;10.868;2024-03-02T11:20:39;94771.13;;;9.46;100.00
16834;BME280;8533;48.426;10.868;2024-03-02T11:23:06;95031.47;;;11.40;100.00
16834;BME280;8533;48.426;10.868;2024-03-02T11:25:32;95026.31;;;11.59;100.00
16834;BME280;8533;48.426;10.868;2024-03-02T11:28:07;95022.66;;;11.31;100.00
16834;BME280;8533;48.426;10.868;2024-03-02T11:33:04;95027.06;;;11.89;100.00
16834;BME280;8533;48.426;10.868;2024-03-02T11:35:33;94976.56;;;11.59;100.00
16834;BME280;8533;48.426;10.868;2024-03-02T11:37:58;95027.63;;;11.85;100.00
16834;BME280;8533;48.426;10.868;2024-03-02T11:40:25;95022.97;;;11.82;100.00
16834;BME280;8533;48.426;10.868;2024-03-02T11:42:50;94962.19;;;11.33;100.00
16834;BME280;8533;48.426;10.868;2024-03-02T11:45:23;94978.88;;;11.61;100.00
16834;BME280;8533;48.426;10.868;2024-03-02T11:47:54;94788.56;;;10.47;100.00
16834;BME280;8533;48.426;10.868;2024-03-02T11:50:40;95012.56;;;11.96;100.00
16834;BME280;8533;48.426;10.868;2024-03-02T11:53:08;95055.63;;;11.61;100.00
16834;BME280;8533;48.426;10.868;2024-03-02T11:55:37;94996.59;;;11.69;100.00
16834;BME280;8533;48.426;10.868;2024-03-02T11:58:05;94995.50;;;12.17;100.00
16834;BME280;8533;48.426;10.868;2024-03-02T12:00:30;94993.13;;;12.21;100.00
16834;BME280;8533;48.426;10.868;2024-03-02T12:03:09;94995.94;;;12.43;100.00
16834;BME280;8533;48.426;10.868;2024-03-02T12:05:35;94984.19;;;12.22;100.00
16834;BME280;8533;48.426;10.868;2024-03-02T12:08:02;94981.50;;;12.46;100.00
16834;BME280;8533;48.426;10.868;2024-03-02T12:10:29;94968.19;;;12.75;100.00
16834;BME280;8533;48.426;10.868;2024-03-02T12:12:56;94792.72;;;11.20;100.00
16834;BME280;8533;48.426;10.868;2024-03-02T12:15:25;94977.03;;;12.28;100.00
16834;BME280;8533;48.426;10.868;2024-03-02T12:17:55;94950.41;;;11.54;100.00
16834;BME280;8533;48.426;10.868;2024-03-02T12:20:21;94961.34;;;12.41;100.00
16834;BME280;8533;48.426;10.868;2024-03-02T12:22:46;94893.19;;;11.66;100.00
16834;BME280;8533;48.426;10.868;2024-03-02T12:25:12;94941.03;;;12.14;100.00
16834;BME280;8533;48.426;10.868;2024-03-02T12:27:39;94982.97;;;12.33;99.78
16834;BME280;8533;48.426;10.868;2024-03-02T12:30:05;94919.31;;;12.79;100.00
16834;BME280;8533;48.426;10.868;2024-03-02T12:32:33;94885.66;;;12.67;100.00
16834;BME280;8533;48.426;10.868;2024-03-02T12:34:58;94768.47;;;12.49;95.76
16834;BME280;8533;48.426;10.868;2024-03-02T12:37:24;94895.56;;;12.56;100.00
16834;BME280;8533;48.426;10.868;2024-03-02T12:39:49;94762.34;;;12.40;96.06
16834;BME280;8533;48.426;10.868;2024-03-02T12:42:14;94933.31;;;13.48;96.87
16834;BME280;8533;48.426;10.868;2024-03-02T12:44:40;94918.28;;;13.07;95.82
16834;BME280;8533;48.426;10.868;2024-03-02T12:47:05;94911.88;;;12.53;100.00
16834;BME280;8533;48.426;10.868;2024-03-02T12:49:30;94924.16;;;12.72;98.08
16834;BME280;8533;48.426;10.868;2024-03-02T12:51:57;94867.00;;;12.69;95.93
16834;BME280;8533;48.426;10.868;2024-03-02T12:54:22;94885.53;;;12.26;97.51
16834;BME280;8533;48.426;10.868;2024-03-02T12:56:50;94754.78;;;11.73;98.29